• Join FlightAware (Why Join?)
  • Login
  • US Flag 
11:21PM EDT


 

Airport Tracker/Info


-or-


 

Live Flight TrackerFlight Track Log ✈ QFA982 ✈ 07-Jul-2013 ✈ YBAS / ASP - YBBN / BNE

Flight Track Log - Related Links

Times and Time Zones

All times are in EDT time to prevent confusion due to time zone crossing. See the QFA982 flight status page for this flight to view local times or setup timezone preferences in your user account.

Time Position Orientation Groundspeed Altitude Reporting Facility
EDT Latitude Longitude Course Direction KTS MPH feet Rate Location/Type
11:02PM -23.8030 133.9010 300° West 26 30  Level FlightAware
11:02PM -23.8030 133.9000 270° West 23 26 360 Level FlightAware
11:05PM -23.8855 134.2213 106° East  Level Estimated
11:05PM -23.8040 133.9000 106° East 18 21  Level FlightAware
11:05PM -23.8040 133.8990 270° West 30 35 660 Level FlightAware
11:06PM -23.8030 133.8970 299° West 19 22 720 Level FlightAware
11:06PM -23.8020 133.8940 290° West 17 20 900 Level FlightAware
11:06PM -23.8010 133.8930 318° Northwest 22 25 1,200 Level FlightAware
11:07PM -23.8010 133.8940 90° East 11 13 1,320 Level FlightAware
11:07PM -23.8030 133.8970 126° Southeast 80 92 1,800 Level FlightAware
11:08PM -23.8080 133.9050 124° Southeast 140 161 3,300 Level FlightAware
11:08PM -23.8180 133.9250 119° Southeast 158 182 2,400 3,420 Climbing FlightAware
11:09PM -23.8290 133.9440 122° Southeast 187 215 3,100 1,980 Climbing FlightAware
11:09PM -23.8420 133.9690 120° Southeast 215 247 4,200 2,100 Climbing FlightAware
11:10PM -23.8570 133.9980 119° Southeast 249 287 5,100 2,280 Climbing FlightAware
11:10PM -23.8680 134.0290 111° Southeast 264 304 6,300 2,640 Climbing FlightAware
11:10PM -23.8790 134.0680 107° East 283 326 7,600 1,800 Climbing FlightAware
11:11PM -23.8840 134.0910 103° East 290 334 7,700 120 Climbing FlightAware
11:11PM -23.8900 134.1320 99° East 289 333 7,700  Level FlightAware
11:11PM -23.8920 134.1480 98° East 289 333 7,700  Level FlightAware
11:12PM -23.8930 134.1810 92° East 287 330 7,700  Level FlightAware
11:12PM -23.8900 134.2290 86° East 285 328 7,700 420 Level FlightAware
11:13PM -23.8860 134.2640 83° East 296 341 8,100 1,980 Climbing FlightAware
11:13PM -23.8970 134.3160 103° East 309 356 9,700 2,640 Climbing FlightAware
11:14PM -23.9060 134.3550 104° East 325 374 10,800 2,220 Climbing FlightAware
11:14PM -23.9240 134.4310 105° East 362 417 12,300 2,160 Climbing FlightAware
11:15PM -23.9400 134.4980 105° East 381 438 13,800 2,520 Climbing FlightAware
11:16PM -23.9590 134.5790 104° East 392 451 15,700 2,580 Climbing FlightAware
11:17PM -23.9800 134.6670 105° East 407 468 17,500 2,280 Climbing FlightAware
11:17PM -23.9990 134.7510 104° East 421 484 19,000 2,160 Climbing FlightAware
11:18PM -24.0190 134.8350 105° East 431 496 20,500 1,740 Climbing FlightAware
11:19PM -24.0410 134.9300 104° East 454 522 21,500 1,380 Climbing FlightAware
11:19PM -24.0590 135.0070 104° East 466 536 22,300 1,620 Climbing FlightAware
11:20PM -24.0820 135.1040 105° East 472 543 23,600 1,800 Climbing FlightAware
11:21PM -24.1020 135.1920 104° East 476 548 24,700 1,680 Climbing FlightAware
11:21PM -24.1240 135.2860 104° East 482 555 25,800 1,560 Climbing FlightAware
11:22PM -24.1480 135.3910 104° East 489 563 26,900 1,320 Climbing FlightAware
11:23PM -24.1770 135.5200 104° East 502 578 28,000 1,200 Climbing FlightAware
11:24PM -24.2000 135.6210 104° East 511 588 28,800 1,140 Climbing FlightAware
11:24PM -24.2230 135.7240 104° East 518 596 29,600 1,080 Climbing FlightAware
11:25PM -24.2510 135.8480 104° East 527 606 30,400 1,080 Climbing FlightAware
11:26PM -24.2750 135.9520 104° East 531 611 31,200 1,260 Climbing FlightAware
11:26PM -24.2950 136.0450 103° East 529 609 32,000 1,500 Climbing FlightAware
11:27PM -24.3190 136.1480 104° East 521 600 33,100 1,560 Climbing FlightAware
11:28PM -24.3440 136.2620 104° East 517 595 34,200 1,260 Climbing FlightAware
11:28PM -24.3600 136.3340 104° East 516 594 34,700 1,020 Climbing FlightAware
11:29PM -24.3870 136.4550 104° East 515 593 35,500 1,020 Climbing FlightAware
11:30PM -24.4100 136.5600 104° East 514 592 36,200 960 Climbing FlightAware
11:30PM -24.4350 136.6720 104° East 514 592 36,900 540 Climbing FlightAware
11:31PM -24.4560 136.7690 103° East 515 593 37,000 60 Climbing FlightAware
11:32PM -24.4780 136.8680 104° East 515 593 37,000  Level FlightAware
11:32PM -24.4960 136.9550 103° East 515 593 37,000  Level FlightAware
11:33PM -24.5270 137.0960 104° East 513 590 37,000  Level FlightAware
11:34PM -24.5450 137.1810 103° East 512 589 37,000  Level FlightAware
11:35PM -24.5690 137.2930 103° East 512 589 37,000  Level FlightAware
11:35PM -24.5850 137.3710 103° East 512 589 37,000  Level FlightAware
11:36PM -24.6070 137.4750 103° East 512 589 37,000  Level FlightAware
11:36PM -24.6180 137.5290 103° East 512 589 37,000  Level FlightAware
11:37PM -24.6340 137.6060 103° East 512 589 37,000  Level FlightAware
11:38PM -24.6560 137.7100 103° East 512 589 37,000  Level FlightAware
11:38PM -24.6720 137.7880 103° East 512 589 37,000  Level FlightAware
11:39PM -24.6940 137.8910 103° East 512 589 37,000  Level FlightAware
11:40PM -24.7100 137.9690 103° East 512 589 37,000  Level FlightAware
11:40PM -24.7270 138.0470 104° East 512 589 37,000  Level FlightAware
11:41PM -24.7480 138.1500 103° East 512 589 37,000  Level FlightAware
11:42PM -24.7650 138.2280 104° East 512 589 37,000  Level FlightAware
11:42PM -24.7810 138.3080 102° East 512 589 37,000  Level FlightAware
11:43PM -24.8030 138.4120 103° East 512 589 37,000  Level FlightAware
11:44PM -24.8190 138.4900 103° East 512 589 37,000  Level FlightAware
11:45PM -24.8410 138.5930 103° East 512 589 37,000  Level FlightAware
11:45PM -24.8580 138.6710 104° East 512 589 37,000  Level FlightAware
11:46PM -24.8740 138.7510 102° East 512 589 37,000  Level FlightAware
11:47PM -24.8960 138.8550 103° East 512 589 37,000  Level FlightAware
11:47PM -24.9120 138.9330 103° East 512 589 37,000  Level FlightAware
11:48PM -24.9290 139.0110 104° East 512 589 37,000  Level FlightAware
11:49PM -24.9500 139.1150 103° East 512 589 37,000  Level FlightAware
11:51PM -25.0098 139.3807 104° East  Level Estimated
11:52PM -25.0417 139.5231 104° East  Level Estimated
11:53PM -25.0734 139.6657 104° East  Level Estimated
11:54PM -25.1050 139.8082 104° East  Level Estimated
11:55PM -25.1365 139.9509 104° East  Level Estimated
11:56PM -25.1678 140.0937 104° East  Level Estimated
11:57PM -25.1990 140.2365 104° East  Level Estimated
11:58PM -25.2300 140.3793 104° East  Level Estimated
11:59PM -25.2609 140.5223 103° East  Level Estimated
12:00AM -25.2917 140.6653 103° East  Level Estimated
12:01AM -25.3223 140.8084 103° East  Level Estimated
12:01AM -25.3600 141.2540 103° East 514 592 37,000  Level FlightAware
12:01AM -25.3820 141.3760 101° East 515 593 37,000  Level FlightAware
12:02AM -25.4040 141.4950 102° East 516 594 37,000  Level FlightAware
12:03AM -25.4220 141.5910 102° East 515 593 37,000  Level FlightAware
12:04AM -25.4520 141.7550 101° East 513 590 37,000  Level FlightAware
12:04AM -25.4720 141.8640 102° East 511 588 37,000  Level FlightAware
12:05AM -25.4880 141.9560 101° East 510 587 37,000  Level FlightAware
12:06AM -25.5050 142.0510 101° East 509 586 37,000  Level FlightAware
12:07AM -25.5270 142.1740 101° East 509 586 37,000  Level FlightAware
12:07AM -25.5460 142.2800 101° East 507 583 37,000  Level FlightAware
12:08AM -25.5670 142.3980 101° East 506 582 37,000  Level FlightAware
12:09AM -25.5870 142.5110 101° East 506 582 37,000  Level FlightAware
12:09AM -25.6020 142.5980 101° East 506 582 37,000  Level FlightAware
12:10AM -25.6200 142.6990 101° East 506 582 37,000  Level FlightAware
12:11AM -25.6440 142.8400 101° East 506 582 37,000  Level FlightAware
12:12AM -25.6630 142.9470 101° East 507 583 37,000  Level FlightAware
12:12AM -25.6820 143.0560 101° East 508 585 37,000  Level FlightAware
12:13AM -25.7000 143.1620 101° East 509 586 37,000  Level FlightAware
12:14AM -25.7190 143.2760 101° East 510 587 37,000  Level FlightAware
12:14AM -25.7340 143.3660 101° East 510 587 37,000  Level FlightAware
12:16AM -25.7840 143.6610 103° East 510 587 37,000  Level FlightAware
12:17AM -25.8003 143.6899 103° East  Level Estimated
12:17AM -25.8110 143.8210 101° East 509 586 37,000  Level FlightAware
12:18AM -25.8290 143.9310 100° East 508 585 37,000  Level FlightAware
12:19AM -25.8460 144.0360 100° East 507 583 37,000  Level FlightAware
12:19AM -25.8650 144.1470 101° East 505 581 37,000  Level FlightAware
12:20AM -25.8800 144.2430 100° East 504 580 37,000  Level FlightAware
12:21AM -25.8990 144.3590 100° East 502 578 37,000  Level FlightAware
12:21AM -25.9160 144.4630 100° East 502 578 37,000  Level FlightAware
12:22AM -25.9300 144.5480 100° East 502 578 37,000  Level FlightAware
12:23AM -25.9470 144.6560 100° East 502 578 37,000  Level FlightAware
12:23AM -25.9660 144.7730 100° East 503 579 37,000  Level FlightAware
12:24AM -25.9810 144.8710 100° East 504 580 37,000  Level FlightAware
12:25AM -25.9990 144.9860 100° East 505 581 37,000  Level FlightAware
12:25AM -26.0140 145.0780 100° East 507 583 37,000  Level FlightAware
12:26AM -26.0320 145.1960 100° East 509 586 37,000  Level FlightAware
12:27AM -26.0480 145.3000 100° East 510 587 37,000  Level FlightAware
12:27AM -26.0620 145.3880 100° East 511 588 37,000  Level FlightAware
12:28AM -26.0780 145.4940 100° East 512 589 37,000  Level FlightAware
12:29AM -26.0960 145.6090 100° East 511 588 37,000  Level FlightAware
12:29AM -26.1100 145.7050 99° East 511 588 37,000  Level FlightAware
12:30AM -26.1260 145.8120 99° East 510 587 37,000  Level FlightAware
12:31AM -26.1420 145.9170 100° East 509 586 37,000  Level FlightAware
12:31AM -26.1560 146.0120 99° East 507 583 37,000  Level FlightAware
12:32AM -26.1720 146.1170 100° East 506 582 37,000  Level FlightAware
12:33AM -26.1880 146.2200 100° East 504 580 37,000  Level FlightAware
12:34AM -26.2040 146.3320 99° East 503 579 37,000  Level FlightAware
12:34AM -26.2200 146.4370 100° East 503 579 37,000  Level FlightAware
12:35AM -26.2360 146.5510 99° East 503 579 37,000  Level FlightAware
12:36AM -26.2510 146.6540 99° East 504 580 37,000  Level FlightAware
12:36AM -26.2640 146.7400 100° East 504 580 37,000  Level FlightAware
12:37AM -26.2740 146.8230 98° East 504 580 37,000  Level FlightAware
12:38AM -26.2880 146.9300 98° East 504 580 37,000  Level FlightAware
12:38AM -26.2980 147.0110 98° East 504 580 37,000  Level FlightAware
12:39AM -26.3080 147.0900 98° East 504 580 37,000  Level FlightAware
12:40AM -26.3210 147.1950 98° East 504 580 37,000 660 Level FlightAware
12:40AM -26.3530 147.3680 102° East 506 582 38,000 780 Climbing FlightAware
12:41AM -26.3630 147.4520 98° East 506 582 38,000  Level FlightAware
12:42AM -26.3810 147.5670 100° East 504 580 38,000  Level FlightAware
12:42AM -26.3910 147.6460 98° East 504 580 38,000  Level FlightAware
12:43AM -26.4090 147.7770 99° East 503 579 38,000  Level FlightAware
12:44AM -26.4270 147.9190 98° East 503 579 38,000  Level FlightAware
12:45AM -26.4480 148.0670 99° East 501 577 38,000  Level FlightAware
12:46AM -26.4580 148.1410 99° East 501 577 38,000  Level FlightAware
12:46AM -26.4710 148.2480 98° East 501 577 38,000  Level FlightAware
12:47AM -26.4810 148.3260 98° East 501 577 38,000  Level FlightAware
12:48AM -26.4940 148.4310 98° East 501 577 38,000  Level FlightAware
12:48AM -26.5040 148.5100 98° East 501 577 38,000  Level FlightAware
12:49AM -26.5160 148.6100 98° East 501 577 38,000  Level FlightAware
12:50AM -26.5260 148.6880 98° East 501 577 38,000  Level FlightAware
12:51AM -26.5400 148.7970 98° East 501 577 38,000  Level FlightAware
12:51AM -26.5500 148.8760 98° East 501 577 38,000  Level FlightAware
12:52AM -26.5630 148.9810 98° East 501 577 38,000  Level FlightAware
12:53AM -26.5730 149.0590 98° East 501 577 38,000  Level FlightAware
12:53AM -26.5860 149.1640 98° East 501 577 38,000  Level FlightAware
12:54AM -26.5960 149.2420 98° East 501 577 38,000  Level FlightAware
12:57AM -26.6734 149.5985 104° East  Level Estimated
12:58AM -26.7045 149.7432 104° East  Level Estimated
12:58AM -26.7920 150.0200 104° East 480 552 38,000  Level FlightAware
12:59AM -26.8170 150.1470 102° East 480 552 38,000  Level FlightAware
12:59AM -26.8360 150.2460 102° East 480 552 38,000  Level FlightAware
01:00AM -26.8550 150.3430 102° East 480 552 38,000  Level FlightAware
01:01AM -26.8750 150.4460 102° East 480 552 38,000  Level FlightAware
01:01AM -26.8940 150.5430 102° East 480 552 38,000  Level FlightAware
01:02AM -26.9140 150.6470 102° East 480 552 38,000  Level FlightAware
01:03AM -26.9310 150.7360 102° East 480 552 38,000  Level FlightAware
01:04AM -26.9520 150.8460 102° East 480 552 38,000  Level FlightAware
01:04AM -26.9700 150.9430 102° East 479 551 38,000  Level FlightAware
01:05AM -26.9900 151.0470 102° East 479 551 38,000  Level FlightAware
01:06AM -27.0090 151.1490 102° East 478 550 38,000 -720 Level FlightAware
01:06AM -27.0240 151.2310 102° East 468 539 37,100 -1,620 Descending FlightAware
01:07AM -27.0450 151.3390 102° East 457 526 35,900 -1,740 Descending FlightAware
01:08AM -27.0640 151.4300 103° East 448 516 34,700 -2,100 Descending FlightAware
01:08AM -27.0980 151.5100 116° Southeast 454 522 33,100 -2,160 Descending FlightAware
01:09AM -27.1470 151.6030 121° Southeast 448 516 31,700 -1,800 Descending FlightAware
01:10AM -27.1880 151.6820 120° Southeast 442 509 30,600 -1,740 Descending FlightAware
01:10AM -27.2350 151.7710 121° Southeast 434 499 29,300 -1,680 Descending FlightAware
01:11AM -27.2760 151.8500 120° Southeast 428 493 28,200 -1,620 Descending FlightAware
01:12AM -27.3120 151.9200 120° Southeast 421 484 27,200 -1,620 Descending FlightAware
01:12AM -27.3500 151.9920 121° Southeast 416 479 26,200 -1,620 Descending FlightAware
01:13AM -27.3960 152.0810 120° Southeast 409 471 24,900 -1,680 Descending FlightAware
01:14AM -27.4400 152.1650 121° Southeast 403 464 23,700 -1,680 Descending FlightAware
01:15AM -27.4770 152.2380 120° Southeast 398 458 22,600 -1,560 Descending FlightAware
01:15AM -27.5180 152.3170 120° Southeast 393 452 21,500 -1,500 Descending FlightAware
01:16AM -27.5550 152.3880 120° Southeast 388 447 20,500 -1,500 Descending FlightAware
01:17AM -27.5860 152.4700 113° Southeast 386 444 19,400 -1,500 Descending FlightAware
01:17AM -27.6040 152.5440 105° East 380 437 18,400 -1,560 Descending FlightAware
01:18AM -27.6190 152.6040 106° East 374 430 17,600 -1,560 Descending FlightAware
01:19AM -27.6400 152.6890 106° East 366 421 16,500 -1,500 Descending FlightAware
01:19AM -27.6370 152.7720 88° East 358 412 15,400 -1,500 Descending FlightAware
01:20AM -27.6190 152.8430 74° East 353 406 14,400 -1,500 Descending FlightAware
01:21AM -27.6020 152.9110 74° East 341 392 13,400 -1,440 Descending FlightAware
01:22AM -27.5830 152.9890 75° East 327 376 12,400 -1,320 Descending FlightAware
01:22AM -27.5670 153.0600 76° East 316 364 11,500 -1,200 Descending FlightAware
01:23AM -27.5540 153.1240 77° East 307 353 10,700 -1,560 Descending FlightAware
01:23AM -27.5480 153.1450 72° East 313 360 10,100 -2,100 Descending FlightAware
01:23AM -27.5430 153.1550 61° Northeast 314 361 10,000 -1,440 Descending FlightAware
01:24AM -27.5210 153.1750 39° Northeast 307 353 9,500 -1,440 Descending FlightAware
01:24AM -27.5100 153.1820 29° Northeast 306 352 9,300 -1,500 Descending FlightAware
01:24AM -27.4720 153.2070 30° Northeast 297 342 8,500 -1,440 Descending FlightAware
01:25AM -27.4520 153.2200 30° Northeast 286 329 8,100 -1,380 Descending FlightAware
01:25AM -27.4200 153.2410 30° Northeast 283 326 7,500 -1,320 Descending FlightAware
01:25AM -27.3940 153.2570 29° Northeast 282 325 7,000 -1,380 Descending FlightAware
01:26AM -27.3750 153.2700 31° Northeast 282 325 6,600 -1,380 Descending FlightAware
01:26AM -27.3420 153.2910 29° Northeast 280 322 6,000 -1,320 Descending FlightAware
01:27AM -27.3070 153.3140 30° Northeast 280 322 5,300 -1,200 Descending FlightAware
01:27AM -27.3020 153.3170 28° Northeast 278 320 5,300 -600 Level FlightAware
01:27AM -27.2740 153.3310 24° Northeast 260 299 5,000 -660 Descending FlightAware
01:28AM -27.2420 153.3190 342° North 232 267 4,700 -600 Descending FlightAware
01:28AM -27.2180 153.2990 323° Northwest 220 253 4,400 -720 Descending FlightAware
01:28AM -27.2090 153.2850 306° West 211 243 4,200 -960 Descending FlightAware
01:29AM -27.2080 153.2740 276° West 205 236 4,000 -1,200 Descending FlightAware
01:29AM -27.2100 153.2400 266° West 198 228 3,400 -1,140 Descending FlightAware
01:29AM -27.2130 153.2300 251° West 194 223 3,200 -1,080 Descending FlightAware
01:30AM -27.2250 153.2200 217° Southwest 190 219 2,900 -900 Descending FlightAware
01:30AM -27.2430 153.2100 206° Southwest 187 215 2,600 -1,020 Descending FlightAware
01:31AM -27.2670 153.1960 207° Southwest 182 209 2,000 -1,020 Descending FlightAware
01:31AM -27.2900 153.1830 207° Southwest 177 204 1,600 -900 Descending FlightAware
01:31AM -27.2970 153.1780 212° Southwest 172 198 1,400 -900 Descending FlightAware
01:32AM -27.3170 153.1670 206° Southwest 148 170 1,000 -780 Descending FlightAware
01:32AM -27.3320 153.1580 208° Southwest 151 174 700 -780 Descending FlightAware
01:33AM -27.3520 153.1480 204° Southwest 148 170 300 -840 Descending FlightAware
01:33AM -27.3700 153.1370 208° Southwest 149 171 -600 Descending FlightAware
01:34AM -27.3840 153.1290 207° Southwest 115 132  Level FlightAware
01:34AM -27.3880 153.1260 214° Southwest 42 48  Level FlightAware
01:34AM -27.3900 153.1250 204° Southwest 27 31  Level FlightAware
01:34AM -27.3910 153.1230 241° Southwest 18 21  Level FlightAware
01:35AM -27.3910 153.1220 270° West 18 21  Level FlightAware
01:35AM -27.3900 153.1220 360° North 17 20  Level FlightAware
01:35AM -27.3880 153.1230 24° Northeast 18 21  Level FlightAware
01:36AM -27.3870 153.1230 360° North 18 21  Level FlightAware
01:36AM -27.3850 153.1250 42° Northeast 19 22  Level FlightAware
01:36AM -27.3840 153.1260 42° Northeast 16 18  Level FlightAware
01:37AM -27.3830 153.1240 299° West 13 15  Level FlightAware
01:38AM -27.3830 153.1230 270° West 2 2  Level FlightAware
01:40AM -27.3842 153.1175 257° West  Level Estimated
01:41AM -27.3842 153.1175 North  Level Estimated
01:42AM -27.3842 153.1175 North  Level Estimated
01:43AM -27.3842 153.1175 North  Level Estimated